Time;durP1;ratioP1;P1;durP2;ratioP2;P2;SDS_P1;SDS_P2;PMS_P1;PMS_P2;Temp;Humidity;BMP_temperature;BMP_pressure;BME280_temperature;BME280_humidity;BME280_pressure;Samples;Min_cycle;Max_cycle;Signal;HPM_P1;HPM_P2
2021/12/04 00:00:21;;;;;;;6.22;1.70;;;;;;;;;;4809981;29;20082;-76
2021/12/04 00:03:02;;;;;;;3.25;1.65;;;;;;;;;;4800676;29;20102;-76
2021/12/04 00:05:29;;;;;;;3.50;1.75;;;;;;;;;;4816969;29;20138;-75
2021/12/04 00:07:55;;;;;;;9.13;1.70;;;;;;;;;;4811593;29;20057;-74
2021/12/04 00:10:26;;;;;;;4.38;1.65;;;;;;;;;;4818146;29;20073;-77
2021/12/04 00:12:53;;;;;;;3.15;1.70;;;;;;;;;;4814208;29;20069;-76
2021/12/04 00:15:21;;;;;;;2.60;1.60;;;;;;;;;;4811712;29;20433;-75
2021/12/04 00:17:47;;;;;;;2.85;1.60;;;;;;;;;;4809658;29;20050;-77
2021/12/04 00:20:13;;;;;;;3.38;1.33;;;;;;;;;;4814822;29;20245;-77
2021/12/04 00:22:40;;;;;;;2.42;1.25;;;;;;;;;;4803751;29;20065;-76
2021/12/04 00:25:07;;;;;;;1.85;1.20;;;;;;;;;;4810692;29;20069;-77
2021/12/04 00:27:34;;;;;;;1.92;1.20;;;;;;;;;;4812480;29;20065;-78
2021/12/04 00:30:00;;;;;;;3.05;2.00;;;;;;;;;;4811824;29;20609;-77
2021/12/04 00:35:05;;;;;;;4.80;1.50;;;;;;;;;;4810046;29;20069;-77
2021/12/04 00:37:48;;;;;;;3.83;1.73;;;;;;;;;;4823807;29;20588;-75
2021/12/04 00:43:26;;;;;;;6.10;1.88;;;;;;;;;;4801762;29;21453;-78
2021/12/04 00:51:24;;;;;;;2.65;1.42;;;;;;;;;;4810570;29;20056;-76
2021/12/04 00:53:54;;;;;;;5.32;1.40;;;;;;;;;;4798712;29;20145;-75
2021/12/04 00:56:22;;;;;;;4.78;1.40;;;;;;;;;;4808718;29;20152;-76
2021/12/04 00:58:48;;;;;;;3.17;1.63;;;;;;;;;;4809483;29;20054;-76
2021/12/04 01:01:19;;;;;;;5.07;1.25;;;;;;;;;;4816021;29;20073;-77
2021/12/04 01:03:46;;;;;;;4.60;1.23;;;;;;;;;;4801681;29;20449;-76
2021/12/04 01:06:13;;;;;;;3.08;1.60;;;;;;;;;;4813616;29;20072;-75
2021/12/04 01:08:39;;;;;;;5.93;1.88;;;;;;;;;;4815872;29;20065;-75
2021/12/04 01:11:06;;;;;;;8.07;1.60;;;;;;;;;;4814973;29;20132;-76
2021/12/04 01:13:33;;;;;;;4.47;1.30;;;;;;;;;;4805371;29;20150;-74
2021/12/04 01:15:59;;;;;;;3.25;1.10;;;;;;;;;;4812964;29;20065;-75
2021/12/04 01:18:26;;;;;;;3.70;1.42;;;;;;;;;;4816372;29;20058;-76
2021/12/04 01:20:52;;;;;;;6.43;1.60;;;;;;;;;;4817020;29;20049;-76
2021/12/04 01:23:18;;;;;;;3.08;1.00;;;;;;;;;;4801760;29;20094;-76
2021/12/04 01:25:45;;;;;;;2.70;1.20;;;;;;;;;;4827697;29;20536;-75
2021/12/04 01:28:12;;;;;;;2.85;1.10;;;;;;;;;;4815938;29;20061;-75
2021/12/04 01:30:38;;;;;;;4.72;1.38;;;;;;;;;;4816708;29;20057;-76
2021/12/04 01:33:04;;;;;;;2.28;1.20;;;;;;;;;;4807100;29;20057;-76
2021/12/04 01:35:30;;;;;;;1.80;1.17;;;;;;;;;;4821076;29;20080;-75
2021/12/04 01:37:56;;;;;;;1.85;1.20;;;;;;;;;;4815667;29;20887;-76
2021/12/04 01:40:23;;;;;;;2.03;1.00;;;;;;;;;;4814692;29;20054;-76
2021/12/04 01:42:49;;;;;;;1.80;1.13;;;;;;;;;;4786839;29;20065;-78
2021/12/04 01:45:17;;;;;;;4.68;1.00;;;;;;;;;;4811040;29;20061;-75
2021/12/04 01:47:44;;;;;;;1.60;1.05;;;;;;;;;;4823074;29;20761;-76
2021/12/04 01:50:10;;;;;;;3.33;1.13;;;;;;;;;;4816313;29;20157;-77
2021/12/04 01:52:37;;;;;;;3.85;1.02;;;;;;;;;;4805155;29;20180;-76
2021/12/04 01:55:04;;;;;;;1.35;1.00;;;;;;;;;;4814699;29;20065;-74
2021/12/04 01:57:31;;;;;;;0.77;0.68;;;;;;;;;;4818698;29;20429;-76
2021/12/04 01:59:57;;;;;;;4.88;1.20;;;;;;;;;;4820434;29;20121;-75
2021/12/04 02:02:24;;;;;;;1.75;1.08;;;;;;;;;;4806569;29;20064;-76
2021/12/04 02:04:50;;;;;;;1.05;0.80;;;;;;;;;;4818707;29;20121;-75
2021/12/04 02:07:19;;;;;;;1.10;0.95;;;;;;;;;;4815902;29;21027;-75
2021/12/04 02:09:45;;;;;;;2.80;1.23;;;;;;;;;;4815700;29;20068;-75
2021/12/04 02:12:11;;;;;;;1.65;1.08;;;;;;;;;;4808932;29;20169;-76
2021/12/04 02:14:40;;;;;;;1.63;1.33;;;;;;;;;;4813249;29;20061;-74
2021/12/04 02:17:07;;;;;;;2.25;1.33;;;;;;;;;;4818591;29;20076;-75
2021/12/04 02:19:34;;;;;;;1.60;1.10;;;;;;;;;;4816415;29;20050;-75
2021/12/04 02:22:00;;;;;;;1.88;1.02;;;;;;;;;;4809613;29;20076;-77
2021/12/04 02:24:27;;;;;;;1.55;1.08;;;;;;;;;;4811688;29;20065;-76
2021/12/04 02:26:53;;;;;;;1.48;1.13;;;;;;;;;;4817948;29;20053;-76
2021/12/04 02:29:19;;;;;;;2.75;1.15;;;;;;;;;;4816841;29;20062;-75
2021/12/04 02:31:51;;;;;;;4.45;1.17;;;;;;;;;;4810208;29;20054;-79
2021/12/04 02:34:22;;;;;;;2.95;1.17;;;;;;;;;;4809773;29;20072;-76
2021/12/04 02:36:48;;;;;;;1.60;0.90;;;;;;;;;;4819160;29;20054;-76
2021/12/04 02:39:28;;;;;;;5.10;1.10;;;;;;;;;;4817562;29;20146;-76
2021/12/04 02:41:56;;;;;;;3.35;0.85;;;;;;;;;;4809132;29;20061;-76
2021/12/04 02:44:33;;;;;;;1.48;0.90;;;;;;;;;;4809391;29;20054;-75
2021/12/04 02:46:59;;;;;;;2.55;1.25;;;;;;;;;;4817008;29;20069;-76
2021/12/04 02:49:25;;;;;;;2.95;1.20;;;;;;;;;;4817932;29;20428;-76
2021/12/04 02:51:51;;;;;;;1.48;1.20;;;;;;;;;;4814520;29;20053;-76
2021/12/04 02:54:17;;;;;;;4.72;1.10;;;;;;;;;;4812842;29;20062;-76
2021/12/04 02:56:45;;;;;;;1.98;1.20;;;;;;;;;;4823435;29;20058;-77
2021/12/04 02:59:12;;;;;;;1.92;1.20;;;;;;;;;;4819789;29;20084;-77
2021/12/04 03:01:40;;;;;;;1.58;0.90;;;;;;;;;;4816792;29;20066;-77
2021/12/04 03:04:12;;;;;;;2.50;1.00;;;;;;;;;;4812698;29;20068;-76
2021/12/04 03:06:45;;;;;;;2.58;1.30;;;;;;;;;;4814714;29;20148;-74
2021/12/04 03:09:13;;;;;;;2.22;1.38;;;;;;;;;;4804372;29;20064;-75
2021/12/04 03:11:40;;;;;;;1.83;1.20;;;;;;;;;;4831913;29;20065;-77
2021/12/04 03:14:07;;;;;;;1.80;1.27;;;;;;;;;;4816511;29;20062;-76
2021/12/04 03:16:35;;;;;;;1.92;1.38;;;;;;;;;;4822704;29;20690;-75
2021/12/04 03:19:02;;;;;;;3.75;1.17;;;;;;;;;;4819732;29;20420;-76
2021/12/04 03:21:28;;;;;;;2.22;1.25;;;;;;;;;;4808701;29;20065;-76
2021/12/04 03:24:03;;;;;;;1.65;1.20;;;;;;;;;;4811660;29;20057;-76
2021/12/04 03:26:30;;;;;;;1.42;1.15;;;;;;;;;;4830289;29;20061;-75
2021/12/04 03:29:00;;;;;;;3.20;1.33;;;;;;;;;;4813814;29;20065;-76
2021/12/04 03:42:13;;;;;;;;;;;;;;;;;;4798150;29;21175;-75
2021/12/04 03:44:40;;;;;;;3.20;1.27;;;;;;;;;;4805405;29;19932;-75
2021/12/04 03:47:08;;;;;;;2.90;1.42;;;;;;;;;;4810431;29;20058;-74
2021/12/04 03:49:35;;;;;;;1.75;1.20;;;;;;;;;;4812215;29;20061;-75
2021/12/04 03:52:02;;;;;;;1.75;1.13;;;;;;;;;;4803142;29;20459;-76
2021/12/04 03:54:29;;;;;;;2.97;1.35;;;;;;;;;;4808507;29;20058;-75
2021/12/04 03:57:04;;;;;;;1.85;1.40;;;;;;;;;;4813442;29;20917;-75
2021/12/04 03:59:32;;;;;;;3.63;1.20;;;;;;;;;;4809993;29;20062;-75
2021/12/04 04:01:59;;;;;;;2.90;1.38;;;;;;;;;;4803937;29;20453;-75
2021/12/04 04:04:25;;;;;;;2.60;1.30;;;;;;;;;;4807920;29;20217;-76
2021/12/04 04:06:51;;;;;;;4.72;1.35;;;;;;;;;;4813961;29;20054;-77
2021/12/04 04:09:17;;;;;;;3.72;1.50;;;;;;;;;;4811360;29;20050;-78
2021/12/04 04:11:44;;;;;;;2.17;1.40;;;;;;;;;;4790994;29;20132;-76
2021/12/04 04:14:10;;;;;;;2.10;1.42;;;;;;;;;;4804073;29;20083;-78
2021/12/04 04:16:39;;;;;;;2.03;1.30;;;;;;;;;;4812609;29;20187;-75
2021/12/04 04:19:06;;;;;;;1.40;1.13;;;;;;;;;;4811662;29;20461;-75
2021/12/04 04:21:39;;;;;;;3.13;1.50;;;;;;;;;;4808072;29;20084;-77
2021/12/04 04:24:10;;;;;;;2.28;1.35;;;;;;;;;;4810409;29;20061;-76
2021/12/04 04:26:37;;;;;;;3.38;1.50;;;;;;;;;;4812012;29;20880;-77
2021/12/04 04:29:05;;;;;;;2.33;1.50;;;;;;;;;;4815467;29;20054;-75
2021/12/04 04:31:33;;;;;;;3.67;1.40;;;;;;;;;;4808504;29;20731;-76
2021/12/04 04:34:05;;;;;;;3.25;1.60;;;;;;;;;;4803805;29;20057;-75
2021/12/04 05:11:39;;;;;;;;;;;;;;;;;;4812206;29;20148;-74
2021/12/04 05:14:06;;;;;;;6.18;1.90;;;;;;;;;;4789744;29;19939;-75
2021/12/04 05:19:28;;;;;;;3.92;1.65;;;;;;;;;;4817911;29;20069;-76
2021/12/04 05:21:55;;;;;;;4.18;1.75;;;;;;;;;;4808236;29;21549;-75
2021/12/04 05:24:22;;;;;;;4.03;1.80;;;;;;;;;;4809347;29;20061;-76
2021/12/04 05:26:48;;;;;;;4.57;1.70;;;;;;;;;;4817502;29;20077;-74
2021/12/04 05:29:15;;;;;;;5.70;1.90;;;;;;;;;;4818303;29;20058;-75
2021/12/04 05:31:41;;;;;;;4.10;1.70;;;;;;;;;;4813622;29;20061;-77
2021/12/04 05:34:07;;;;;;;3.67;1.60;;;;;;;;;;4823151;29;20216;-77
2021/12/04 05:36:33;;;;;;;3.83;1.90;;;;;;;;;;4813147;29;20093;-76
2021/12/04 05:39:00;;;;;;;3.92;2.00;;;;;;;;;;4811908;29;20090;-76
2021/12/04 05:41:26;;;;;;;3.40;1.58;;;;;;;;;;4809179;29;20065;-76
2021/12/04 05:43:52;;;;;;;3.38;1.95;;;;;;;;;;4802356;29;20050;-77
2021/12/04 05:46:22;;;;;;;3.17;1.50;;;;;;;;;;4811531;29;20054;-75
2021/12/04 05:49:04;;;;;;;3.70;1.63;;;;;;;;;;4797854;29;20049;-76
2021/12/04 05:51:49;;;;;;;3.45;1.92;;;;;;;;;;4810106;29;20690;-76
2021/12/04 05:54:31;;;;;;;6.63;1.43;;;;;;;;;;4788708;29;20065;-75
2021/12/04 05:56:59;;;;;;;2.65;1.40;;;;;;;;;;4814054;29;20061;-78
2021/12/04 05:59:25;;;;;;;1.48;1.20;;;;;;;;;;4812807;29;20121;-75
2021/12/04 06:01:52;;;;;;;2.63;1.50;;;;;;;;;;4806211;29;20058;-75
2021/12/04 06:04:18;;;;;;;3.42;1.58;;;;;;;;;;4807680;29;20068;-76
2021/12/04 06:06:44;;;;;;;2.80;1.30;;;;;;;;;;4811721;29;20058;-76
2021/12/04 06:09:11;;;;;;;2.90;1.45;;;;;;;;;;4809755;29;20064;-76
2021/12/04 06:11:37;;;;;;;2.65;1.40;;;;;;;;;;4792217;29;20050;-77
2021/12/04 06:14:04;;;;;;;3.45;1.70;;;;;;;;;;4807438;29;20056;-75
2021/12/04 06:16:31;;;;;;;3.47;1.60;;;;;;;;;;4812872;29;20086;-75
2021/12/04 06:19:05;;;;;;;2.85;1.40;;;;;;;;;;4811196;29;20179;-76
2021/12/04 06:24:16;;;;;;;4.57;1.20;;;;;;;;;;4805740;29;20058;-77
2021/12/04 06:26:42;;;;;;;2.75;1.60;;;;;;;;;;4811694;29;20149;-76
2021/12/04 06:29:09;;;;;;;5.20;1.50;;;;;;;;;;4812276;29;20489;-76
2021/12/04 06:31:35;;;;;;;4.70;1.40;;;;;;;;;;4808661;29;20192;-76
2021/12/04 06:34:01;;;;;;;4.75;1.55;;;;;;;;;;4802621;29;20726;-75
2021/12/04 06:36:28;;;;;;;4.53;2.10;;;;;;;;;;4809910;29;20161;-76
2021/12/04 06:38:54;;;;;;;3.13;1.50;;;;;;;;;;4809841;29;20164;-75
2021/12/04 06:41:21;;;;;;;3.15;1.45;;;;;;;;;;4810632;29;20559;-76
2021/12/04 06:43:49;;;;;;;7.28;1.80;;;;;;;;;;4806493;29;20050;-76
2021/12/04 06:46:18;;;;;;;2.03;1.40;;;;;;;;;;4793187;29;20198;-75
2021/12/04 06:53:49;;;;;;;7.20;1.58;;;;;;;;;;4801818;29;20065;-75
2021/12/04 06:56:18;;;;;;;4.03;1.75;;;;;;;;;;4813408;29;20065;-76
2021/12/04 06:58:44;;;;;;;2.88;1.40;;;;;;;;;;4813516;29;20210;-75
2021/12/04 07:01:11;;;;;;;3.90;1.67;;;;;;;;;;4810547;29;20198;-76
2021/12/04 07:03:38;;;;;;;2.63;1.50;;;;;;;;;;4802328;29;20140;-76
2021/12/04 07:06:05;;;;;;;2.03;1.40;;;;;;;;;;4826171;29;20061;-77
2021/12/04 07:08:31;;;;;;;4.40;2.47;;;;;;;;;;4810438;29;20058;-75
2021/12/04 07:10:59;;;;;;;2.10;1.27;;;;;;;;;;4813295;29;20101;-74
2021/12/04 07:13:25;;;;;;;2.05;1.30;;;;;;;;;;4803413;29;20050;-76
2021/12/04 07:16:01;;;;;;;2.35;1.20;;;;;;;;;;4808050;29;20065;-76
2021/12/04 07:18:27;;;;;;;6.35;1.80;;;;;;;;;;4811486;29;20132;-76
2021/12/04 07:20:53;;;;;;;2.50;1.40;;;;;;;;;;4811858;29;20109;-76
2021/12/04 07:23:20;;;;;;;6.18;1.83;;;;;;;;;;4804611;29;20057;-76
2021/12/04 07:25:46;;;;;;;2.40;1.38;;;;;;;;;;4812566;29;20049;-76
2021/12/04 07:28:13;;;;;;;6.22;1.35;;;;;;;;;;4811632;29;20860;-79
2021/12/04 07:30:40;;;;;;;4.57;1.52;;;;;;;;;;4809066;29;20066;-77
2021/12/04 07:33:07;;;;;;;4.68;1.38;;;;;;;;;;4800085;29;20501;-75
2021/12/04 07:35:33;;;;;;;4.20;1.70;;;;;;;;;;4811946;29;20069;-75
2021/12/04 07:38:00;;;;;;;4.47;1.48;;;;;;;;;;4795330;29;20152;-75
2021/12/04 07:40:27;;;;;;;3.30;1.45;;;;;;;;;;4807568;29;20477;-78
2021/12/04 07:42:53;;;;;;;3.05;1.25;;;;;;;;;;4802163;29;20050;-79
2021/12/04 07:45:19;;;;;;;6.55;1.80;;;;;;;;;;4806777;29;20145;-77
2021/12/04 07:47:46;;;;;;;2.88;1.45;;;;;;;;;;4795968;29;20606;-74
2021/12/04 07:50:14;;;;;;;4.47;1.55;;;;;;;;;;4798337;29;21139;-76
2021/12/04 07:52:41;;;;;;;4.05;1.77;;;;;;;;;;4799219;29;20062;-76
2021/12/04 07:55:08;;;;;;;3.75;1.73;;;;;;;;;;4814976;29;20720;-76
2021/12/04 07:57:35;;;;;;;3.22;1.80;;;;;;;;;;4816393;29;20111;-76
2021/12/04 08:00:06;;;;;;;4.05;1.50;;;;;;;;;;4809699;29;20110;-74
2021/12/04 08:02:32;;;;;;;5.55;1.80;;;;;;;;;;4802944;29;20061;-78
2021/12/04 08:04:59;;;;;;;4.55;1.60;;;;;;;;;;4808245;29;20212;-77
2021/12/04 08:07:24;;;;;;;3.13;1.70;;;;;;;;;;4810393;29;20054;-77
2021/12/04 08:09:51;;;;;;;8.63;1.92;;;;;;;;;;4793738;29;20238;-75
2021/12/04 08:12:17;;;;;;;4.60;2.05;;;;;;;;;;4796680;29;20053;-77
2021/12/04 08:14:43;;;;;;;5.35;1.90;;;;;;;;;;4809411;29;20189;-77
2021/12/04 08:17:09;;;;;;;3.28;1.60;;;;;;;;;;4816257;29;20117;-79
2021/12/04 08:19:36;;;;;;;5.00;1.77;;;;;;;;;;4820172;29;20098;-78
2021/12/04 08:22:03;;;;;;;3.75;1.80;;;;;;;;;;4813792;29;20209;-78
2021/12/04 08:24:30;;;;;;;3.70;2.08;;;;;;;;;;4814808;29;20062;-78
2021/12/04 08:26:56;;;;;;;4.55;2.10;;;;;;;;;;4820151;29;20061;-77
2021/12/04 08:29:23;;;;;;;6.00;2.20;;;;;;;;;;4826977;29;20061;-78
2021/12/04 08:31:50;;;;;;;3.58;2.20;;;;;;;;;;4813635;29;20068;-77
2021/12/04 08:34:16;;;;;;;5.03;2.72;;;;;;;;;;4816802;29;20057;-75
2021/12/04 08:36:42;;;;;;;5.45;2.60;;;;;;;;;;4821658;29;20162;-78
2021/12/04 08:39:09;;;;;;;4.38;1.80;;;;;;;;;;4823818;29;20559;-79
2021/12/04 08:41:35;;;;;;;4.13;2.10;;;;;;;;;;4816007;29;20054;-79
2021/12/04 08:44:01;;;;;;;5.15;1.77;;;;;;;;;;4811975;29;20066;-78
2021/12/04 08:46:27;;;;;;;6.60;1.50;;;;;;;;;;4810781;29;20072;-75
2021/12/04 08:48:54;;;;;;;2.20;1.30;;;;;;;;;;4821650;29;20058;-79
2021/12/04 08:51:23;;;;;;;2.85;1.48;;;;;;;;;;4825328;29;20057;-80
2021/12/04 08:53:51;;;;;;;3.40;1.60;;;;;;;;;;4804583;29;20057;-78
2021/12/04 08:56:17;;;;;;;4.88;1.73;;;;;;;;;;4824522;29;20061;-78
2021/12/04 08:58:43;;;;;;;4.45;1.42;;;;;;;;;;4826115;29;20122;-77
2021/12/04 09:01:16;;;;;;;5.50;1.60;;;;;;;;;;4824704;29;20093;-79
2021/12/04 09:03:46;;;;;;;3.53;2.17;;;;;;;;;;4814329;29;20058;-78
2021/12/04 09:06:14;;;;;;;2.38;1.50;;;;;;;;;;4821210;29;20064;-76
2021/12/04 09:08:41;;;;;;;5.53;1.27;;;;;;;;;;4824604;29;20054;-80
2021/12/04 09:11:13;;;;;;;2.28;1.30;;;;;;;;;;4827891;29;20141;-77
2021/12/04 09:13:41;;;;;;;4.43;1.40;;;;;;;;;;4820002;29;20068;-78
2021/12/04 09:16:08;;;;;;;4.85;1.50;;;;;;;;;;4827230;29;20107;-77
2021/12/04 09:18:36;;;;;;;3.67;1.52;;;;;;;;;;4825677;29;20138;-76
2021/12/04 09:21:05;;;;;;;5.03;1.60;;;;;;;;;;4824645;29;20057;-77
2021/12/04 09:23:38;;;;;;;2.70;1.50;;;;;;;;;;4813849;29;20058;-76
2021/12/04 09:26:07;;;;;;;4.65;1.50;;;;;;;;;;4826459;29;20061;-77
2021/12/04 09:33:59;;;;;;;3.55;1.75;;;;;;;;;;4815794;29;20117;-76
2021/12/04 10:01:11;;;;;;;6.82;1.50;;;;;;;;;;4821125;29;20061;-78
2021/12/04 10:18:23;;;;;;;4.25;1.50;;;;;;;;;;4894443;29;20079;-75
2021/12/04 10:34:34;;;;;;;5.63;1.67;;;;;;;;;;4877146;29;20071;-78
2021/12/04 10:37:12;;;;;;;2.95;1.30;;;;;;;;;;4886933;29;20056;-77
2021/12/04 10:39:39;;;;;;;4.50;0.82;;;;;;;;;;4883521;29;20910;-75
2021/12/04 10:42:16;;;;;;;9.25;1.10;;;;;;;;;;4862531;29;20061;-69
2021/12/04 10:44:49;;;;;;;10.38;1.30;;;;;;;;;;4850719;29;20487;-71
2021/12/04 10:47:22;;;;;;;4.13;0.98;;;;;;;;;;4813170;29;20058;-68
2021/12/04 10:50:08;;;;;;;3.22;0.80;;;;;;;;;;4805015;29;20069;-69
2021/12/04 10:58:17;;;;;;;4.13;1.20;;;;;;;;;;4809539;29;20096;-70
2021/12/04 11:37:09;;;;;;;1.65;0.82;;;;;;;;;;4811300;29;20107;-70
2021/12/04 11:40:23;;;;;;;1.88;1.17;;;;;;;;;;4811846;29;20540;-72
2021/12/04 11:45:11;;;;;;;2.78;1.20;;;;;;;;;;4807915;29;20065;-70
2021/12/04 11:47:39;;;;;;;3.15;1.20;;;;;;;;;;4815612;29;20053;-70
2021/12/04 11:50:22;;;;;;;3.47;1.20;;;;;;;;;;4810826;29;20118;-73
2021/12/04 11:52:51;;;;;;;4.63;1.10;;;;;;;;;;4798344;29;20068;-70
2021/12/04 11:55:20;;;;;;;1.75;1.10;;;;;;;;;;4807627;29;20058;-70
2021/12/04 11:57:48;;;;;;;1.92;1.00;;;;;;;;;;4810041;29;20052;-70
2021/12/04 12:00:25;;;;;;;1.45;0.88;;;;;;;;;;4790163;29;20066;-71
2021/12/04 12:03:04;;;;;;;2.13;0.80;;;;;;;;;;4795573;29;20090;-72
2021/12/04 12:05:30;;;;;;;5.55;1.02;;;;;;;;;;4807314;29;20068;-70
2021/12/04 12:07:58;;;;;;;2.97;1.10;;;;;;;;;;4807526;29;20054;-72
2021/12/04 12:10:27;;;;;;;1.42;1.00;;;;;;;;;;4805756;29;20057;-67
2021/12/04 12:13:04;;;;;;;1.02;0.80;;;;;;;;;;4796302;29;20581;-67
2021/12/04 12:15:34;;;;;;;4.95;0.98;;;;;;;;;;4800277;29;20118;-68
2021/12/04 12:18:17;;;;;;;1.92;1.00;;;;;;;;;;4811752;29;20090;-71
2021/12/04 12:20:51;;;;;;;2.13;1.20;;;;;;;;;;4810031;29;20062;-68
2021/12/04 12:23:22;;;;;;;2.15;1.00;;;;;;;;;;4799913;29;20066;-66
2021/12/04 12:26:07;;;;;;;2.10;1.10;;;;;;;;;;4809816;29;20050;-67
2021/12/04 12:37:33;;;;;;;4.10;1.00;;;;;;;;;;4811994;29;20128;-69
2021/12/04 12:40:12;;;;;;;2.30;1.08;;;;;;;;;;4809883;29;20054;-72
2021/12/04 12:42:41;;;;;;;1.90;1.17;;;;;;;;;;4800810;29;20086;-70
2021/12/04 12:45:29;;;;;;;4.72;1.60;;;;;;;;;;4808651;29;21023;-69
2021/12/04 12:48:01;;;;;;;1.70;0.75;;;;;;;;;;4813874;29;20054;-70
2021/12/04 12:50:38;;;;;;;2.65;0.93;;;;;;;;;;4815229;29;20094;-70
2021/12/04 12:53:18;;;;;;;3.35;1.45;;;;;;;;;;4818745;29;20092;-69
2021/12/04 12:55:48;;;;;;;2.17;1.30;;;;;;;;;;4811151;29;20148;-69
2021/12/04 12:58:25;;;;;;;1.38;0.82;;;;;;;;;;4813087;29;20536;-69
2021/12/04 13:12:16;;;;;;;4.90;1.73;;;;;;;;;;4804598;29;20058;-68
2021/12/04 13:14:42;;;;;;;1.75;1.20;;;;;;;;;;4813918;29;20065;-73
2021/12/04 13:17:12;;;;;;;4.47;1.48;;;;;;;;;;4816676;29;20157;-72
2021/12/04 13:19:43;;;;;;;3.40;1.48;;;;;;;;;;4832685;29;20429;-69
2021/12/04 13:22:12;;;;;;;4.22;1.60;;;;;;;;;;4814623;29;20106;-72
2021/12/04 13:24:41;;;;;;;4.53;1.63;;;;;;;;;;4817572;29;20061;-72
2021/12/04 13:29:52;;;;;;;2.10;1.40;;;;;;;;;;4818712;29;20058;-70
2021/12/04 13:32:28;;;;;;;3.25;1.50;;;;;;;;;;4812504;29;20137;-73
2021/12/04 13:35:01;;;;;;;6.70;1.65;;;;;;;;;;4801531;29;20121;-69
2021/12/04 13:37:29;;;;;;;4.47;1.45;;;;;;;;;;4820478;29;20157;-71
2021/12/04 13:40:01;;;;;;;5.05;1.42;;;;;;;;;;4818589;29;20058;-71
2021/12/04 13:42:28;;;;;;;2.53;1.63;;;;;;;;;;4815667;29;20057;-71
2021/12/04 13:44:59;;;;;;;5.28;1.30;;;;;;;;;;4817070;29;20041;-72
2021/12/04 13:47:26;;;;;;;4.10;1.42;;;;;;;;;;4820585;29;20153;-72
2021/12/04 13:50:06;;;;;;;5.53;1.58;;;;;;;;;;4820862;29;20058;-71
2021/12/04 13:52:33;;;;;;;2.20;1.50;;;;;;;;;;4814010;29;20556;-71
2021/12/04 13:55:05;;;;;;;2.35;1.15;;;;;;;;;;4818428;29;20058;-74
2021/12/04 13:57:32;;;;;;;9.23;1.58;;;;;;;;;;4819516;29;20529;-71
2021/12/04 13:59:59;;;;;;;3.13;1.40;;;;;;;;;;4817774;29;20061;-71
2021/12/04 14:02:29;;;;;;;1.80;1.38;;;;;;;;;;4814510;29;20157;-73
2021/12/04 14:05:04;;;;;;;2.90;1.50;;;;;;;;;;4831622;29;20081;-71
2021/12/04 14:07:30;;;;;;;2.45;1.50;;;;;;;;;;4819305;29;20514;-69
2021/12/04 14:09:57;;;;;;;2.72;1.20;;;;;;;;;;4817857;29;20050;-73
2021/12/04 14:12:23;;;;;;;1.60;1.23;;;;;;;;;;4810876;29;20049;-72
2021/12/04 14:14:50;;;;;;;3.58;1.13;;;;;;;;;;4814735;29;20053;-72
2021/12/04 14:17:18;;;;;;;2.20;1.10;;;;;;;;;;4816656;29;20126;-70
2021/12/04 14:19:45;;;;;;;2.47;1.25;;;;;;;;;;4815478;29;20080;-72
2021/12/04 14:22:18;;;;;;;3.67;1.27;;;;;;;;;;4813177;29;20054;-72
2021/12/04 14:24:56;;;;;;;2.00;1.05;;;;;;;;;;4818312;29;20063;-74
2021/12/04 14:27:27;;;;;;;1.58;1.30;;;;;;;;;;4800937;29;20519;-70
2021/12/04 14:29:59;;;;;;;2.17;1.30;;;;;;;;;;4815803;29;20114;-74
2021/12/04 14:32:29;;;;;;;1.65;1.15;;;;;;;;;;4813079;29;20070;-74
2021/12/04 14:35:18;;;;;;;4.03;1.30;;;;;;;;;;4802977;29;20062;-71
2021/12/04 14:37:50;;;;;;;2.25;1.50;;;;;;;;;;4816933;29;20120;-74
2021/12/04 14:40:20;;;;;;;2.08;1.35;;;;;;;;;;4815105;29;20058;-71
2021/12/04 14:42:49;;;;;;;3.92;1.30;;;;;;;;;;4816803;29;20058;-73
2021/12/04 14:45:20;;;;;;;3.55;1.30;;;;;;;;;;4818035;29;20058;-71
2021/12/04 14:47:53;;;;;;;2.00;1.50;;;;;;;;;;4807525;29;20058;-74
2021/12/04 14:50:20;;;;;;;1.60;1.20;;;;;;;;;;4816135;29;20085;-70
2021/12/04 14:52:58;;;;;;;3.53;1.40;;;;;;;;;;4813525;29;20838;-71
2021/12/04 14:55:28;;;;;;;4.65;1.90;;;;;;;;;;4816380;29;20136;-74
2021/12/04 14:57:56;;;;;;;1.92;1.20;;;;;;;;;;4815576;29;20094;-71
2021/12/04 15:00:23;;;;;;;2.03;1.45;;;;;;;;;;4799586;29;20053;-71
2021/12/04 15:02:53;;;;;;;3.20;1.50;;;;;;;;;;4812283;29;20050;-72
2021/12/04 15:05:35;;;;;;;3.20;1.70;;;;;;;;;;4817201;29;21796;-70
2021/12/04 15:08:09;;;;;;;1.85;1.35;;;;;;;;;;4829938;29;20614;-71
2021/12/04 15:10:37;;;;;;;3.70;1.40;;;;;;;;;;4816651;29;20058;-70
2021/12/04 15:13:05;;;;;;;1.77;1.25;;;;;;;;;;4814945;29;20073;-70
2021/12/04 15:15:35;;;;;;;2.58;1.35;;;;;;;;;;4817636;29;20126;-74
2021/12/04 15:18:08;;;;;;;5.30;2.17;;;;;;;;;;4816235;29;20110;-77
2021/12/04 15:20:41;;;;;;;4.70;1.60;;;;;;;;;;4818134;29;20185;-76
2021/12/04 15:23:09;;;;;;;2.67;1.60;;;;;;;;;;4798147;29;20050;-75
2021/12/04 15:25:37;;;;;;;6.03;1.40;;;;;;;;;;4816201;29;20053;-72
2021/12/04 15:28:19;;;;;;;1.92;1.30;;;;;;;;;;4804819;29;20058;-70
2021/12/04 15:30:47;;;;;;;1.83;1.35;;;;;;;;;;4817345;29;20629;-72
2021/12/04 15:33:41;;;;;;;2.50;1.27;;;;;;;;;;4815568;29;20062;-71
2021/12/04 15:36:24;;;;;;;3.17;1.30;;;;;;;;;;4818114;29;20070;-73
2021/12/04 15:38:54;;;;;;;5.32;1.50;;;;;;;;;;4816767;29;20703;-73
2021/12/04 15:42:10;;;;;;;2.33;1.30;;;;;;;;;;5106870;27;20140;-75
2021/12/04 15:53:08;;;;;;;4.60;1.88;;;;;;;;;;5048119;28;20049;-68
2021/12/04 15:55:40;;;;;;;3.22;1.73;;;;;;;;;;5034428;28;20063;-71
2021/12/04 15:58:13;;;;;;;2.25;1.50;;;;;;;;;;5044396;28;20049;-70
2021/12/04 16:00:52;;;;;;;2.67;1.30;;;;;;;;;;5046750;28;20139;-73
2021/12/04 16:03:21;;;;;;;1.75;1.17;;;;;;;;;;5020983;28;20505;-70
2021/12/04 16:05:53;;;;;;;1.92;1.05;;;;;;;;;;5031516;28;20056;-73
2021/12/04 16:08:24;;;;;;;2.50;1.25;;;;;;;;;;5049018;28;20118;-69
2021/12/04 16:10:52;;;;;;;9.30;1.42;;;;;;;;;;5026256;28;20438;-73
2021/12/04 16:13:30;;;;;;;3.03;1.10;;;;;;;;;;5040592;28;20045;-72
2021/12/04 16:15:59;;;;;;;2.17;1.20;;;;;;;;;;5041891;28;20064;-72
2021/12/04 16:18:27;;;;;;;4.13;1.52;;;;;;;;;;5046676;28;20052;-71
2021/12/04 16:20:55;;;;;;;2.28;1.20;;;;;;;;;;5048138;28;20175;-70
2021/12/04 16:23:22;;;;;;;2.95;1.25;;;;;;;;;;5008054;28;20056;-71
2021/12/04 16:25:49;;;;;;;1.92;1.20;;;;;;;;;;5043180;28;20159;-69
2021/12/04 16:35:10;;;;;;;3.95;1.30;;;;;;;;;;5067665;28;20052;-71
2021/12/04 16:37:08;;;;;;;2.08;1.08;;;;;;;;;;5070667;28;20109;-70
2021/12/04 16:39:36;;;;;;;3.33;1.15;;;;;;;;;;5068664;28;20071;-69
2021/12/04 16:42:04;;;;;;;2.08;1.30;;;;;;;;;;5044397;28;20059;-71
2021/12/04 16:44:32;;;;;;;2.22;1.30;;;;;;;;;;5070521;28;20725;-71
2021/12/04 16:46:58;;;;;;;1.23;0.93;;;;;;;;;;5057222;28;20143;-71
2021/12/04 16:49:25;;;;;;;2.70;1.15;;;;;;;;;;5068255;28;21970;-73
2021/12/04 17:00:07;;;;;;;2.00;1.08;;;;;;;;;;5054327;28;20060;-72
2021/12/04 17:02:34;;;;;;;2.78;1.25;;;;;;;;;;5051592;28;20048;-72
2021/12/04 17:05:00;;;;;;;1.80;1.05;;;;;;;;;;5054213;28;20049;-69
2021/12/04 17:07:26;;;;;;;2.22;1.02;;;;;;;;;;5042351;28;20060;-71
2021/12/04 17:09:52;;;;;;;3.42;1.17;;;;;;;;;;5057577;28;20106;-76
2021/12/04 17:12:19;;;;;;;2.63;1.20;;;;;;;;;;5048869;28;20048;-69
2021/12/04 17:14:47;;;;;;;3.25;1.00;;;;;;;;;;5061390;28;20076;-70
2021/12/04 17:17:21;;;;;;;2.70;0.98;;;;;;;;;;5058962;28;20055;-71
2021/12/04 17:19:48;;;;;;;2.30;1.02;;;;;;;;;;5058249;28;20095;-71
2021/12/04 17:22:14;;;;;;;2.35;1.30;;;;;;;;;;5052355;28;20040;-72
2021/12/04 17:24:41;;;;;;;3.42;1.00;;;;;;;;;;5057656;28;20056;-72
2021/12/04 17:27:07;;;;;;;2.35;1.17;;;;;;;;;;5036773;28;20812;-71
2021/12/04 17:29:34;;;;;;;1.55;0.98;;;;;;;;;;5055305;28;20547;-72
2021/12/04 17:32:02;;;;;;;3.55;1.10;;;;;;;;;;5045851;28;20047;-73
2021/12/04 17:34:30;;;;;;;6.00;1.35;;;;;;;;;;5041763;28;20110;-68
2021/12/04 17:36:56;;;;;;;2.67;1.20;;;;;;;;;;5037827;28;20961;-73
2021/12/04 17:39:22;;;;;;;1.88;1.33;;;;;;;;;;5022540;28;20048;-66
2021/12/04 17:41:49;;;;;;;2.50;1.30;;;;;;;;;;5017772;28;20094;-66
2021/12/04 17:44:20;;;;;;;3.50;1.10;;;;;;;;;;5045406;28;20170;-69
2021/12/04 17:46:49;;;;;;;1.83;1.35;;;;;;;;;;5028990;28;20516;-67
2021/12/04 17:49:17;;;;;;;8.23;1.38;;;;;;;;;;5049739;28;20552;-68
2021/12/04 17:51:47;;;;;;;4.97;1.88;;;;;;;;;;5043500;28;20175;-68
2021/12/04 17:54:15;;;;;;;7.43;1.40;;;;;;;;;;5045455;28;20418;-67
2021/12/04 17:56:45;;;;;;;4.40;1.48;;;;;;;;;;5048975;28;20469;-69
2021/12/04 17:59:13;;;;;;;3.80;1.45;;;;;;;;;;5048366;28;21742;-69
2021/12/04 18:01:49;;;;;;;5.72;1.60;;;;;;;;;;5046028;28;20142;-70
2021/12/04 18:04:25;;;;;;;4.18;1.80;;;;;;;;;;5045724;28;20482;-69
2021/12/04 18:06:53;;;;;;;3.63;2.00;;;;;;;;;;5029629;28;20063;-69
2021/12/04 18:09:21;;;;;;;4.15;2.13;;;;;;;;;;5046637;28;20064;-70
2021/12/04 18:11:52;;;;;;;5.40;2.30;;;;;;;;;;5040963;28;20053;-72
2021/12/04 18:14:21;;;;;;;5.32;2.45;;;;;;;;;;5045467;28;20413;-68
2021/12/04 18:16:52;;;;;;;4.35;2.63;;;;;;;;;;5045463;28;20484;-68
2021/12/04 18:19:20;;;;;;;5.40;3.15;;;;;;;;;;5039948;28;20524;-69
2021/12/04 18:21:48;;;;;;;5.57;2.70;;;;;;;;;;5036202;28;20367;-70
2021/12/04 18:24:15;;;;;;;4.32;2.95;;;;;;;;;;5042682;28;20040;-69
2021/12/04 18:26:43;;;;;;;8.15;3.03;;;;;;;;;;5044423;28;20075;-70
2021/12/04 18:29:10;;;;;;;4.55;2.47;;;;;;;;;;5044377;28;20044;-67
2021/12/04 18:31:38;;;;;;;7.25;2.97;;;;;;;;;;5041859;28;20371;-68